Foxworth, MS (39483)

5:14 PM CDT on September 02, 2015 (GMT -0500)
RAWS | | Change Station
CLOSE
Current Station
Personal Weather Station
Location: Foxworth, MS
Elevation: 379 ft
Nearby Weather Stations

Elev 379 ft 31.21 °N, 89.92 °W | Updated 1 hour ago

Partly Cloudy
Partly Cloudy
87.0 °F
Feels Like 92 °F
N
3.0
Wind Variable Wind from SSW
Gusts 7.0 mph

Today
High -- | Low -- °F
--% Chance of Precip.
Yesterday
High -- | Low -- °F
Precip. -- in
6:36 AM 7:22 PM
Waning Gibbous, 77% visible
Pressure 30.00 in
Visibility 10.0 miles
Clouds Few 11000 ft
Heat Index 92 °F
Dew Point 69.0 °F
Humidity 56%
Rainfall in
Snow Depth Not available.
UV 3 out of 12
Pollen 9.30 out of 12
Air Quality Not available.
Flu Activity Not available.
METAR KMCB 022153Z AUTO 20008KT 10SM FEW110 30/21 A3002 RMK AO2 SLP158 T03000206
Pressure 30.00 in
Visibility 10.0 miles
Clouds Few 11000 ft
Heat Index 92 °F
Dew Point 69.0 °F
Humidity 56%
Rainfall in
Snow Depth Not available.
UV 3 out of 12
Pollen 9.30 out of 12
Air Quality Not available.
Flu Activity Not available.
METAR KMCB 022153Z AUTO 20008KT 10SM FEW110 30/21 A3002 RMK AO2 SLP158 T03000206

10-Day Weather Forecast

×

Almanac

Astronomy

Sep. 02, 2015 Rise Set
Actual Time
Civil Twilight
Nautical Twilight
Astronomical Twilight
Moon
Length of Visible Light
Length of Day
Tomorrow will be .
, % of the Moon is Illuminated

Today's Extremes

State Highs State Lows

Community

WunderPhotos

Upload Photos

1,851,823 photos uploaded!

WunderBlogs® & News

Nearby

Air Quality

  Air Quality AQ Index Pollutant
Not available.

Snow Depth

Station Depth Elevation

Earthquake Activity

City Distance Mag. Time & Date
Minimum magnitude displayed is 2.5.

Coastal Water Temperatures

Place Temperature

Stations

Nearby Weather Stations

Station Location Temp. Windchill Dew Point Humidity Wind Precip. Elev Updated Type